Time;durP1;ratioP1;P1;durP2;ratioP2;P2;SDS_P1;SDS_P2;PMS_P1;PMS_P2;Temp;Humidity;BMP_temperature;BMP_pressure;BME280_temperature;BME280_humidity;BME280_pressure;Samples;Min_cycle;Max_cycle;Signal;HPM_P1;HPM_P2
2023/12/07 00:01:07;;;;;;;63.00;54.53;;;;;;;;;;5020901;28;20017;-75
2023/12/07 00:03:33;;;;;;;65.07;57.92;;;;;;;;;;5020382;28;20097;-74
2023/12/07 00:05:58;;;;;;;56.38;47.97;;;;;;;;;;5019297;28;20156;-75
2023/12/07 00:08:24;;;;;;;76.03;64.88;;;;;;;;;;5019714;28;20037;-75
2023/12/07 00:10:49;;;;;;;51.58;43.05;;;;;;;;;;5018682;28;20037;-75
2023/12/07 00:13:16;;;;;;;58.65;44.42;;;;;;;;;;5016131;28;20029;-75
2023/12/07 00:15:42;;;;;;;54.40;47.70;;;;;;;;;;5006757;28;20033;-75
2023/12/07 00:18:07;;;;;;;46.15;40.03;;;;;;;;;;5015527;28;20123;-74
2023/12/07 00:20:33;;;;;;;63.47;49.72;;;;;;;;;;5019396;28;20029;-74
2023/12/07 00:22:58;;;;;;;54.35;46.30;;;;;;;;;;5019504;28;20131;-73
2023/12/07 00:25:23;;;;;;;50.92;41.75;;;;;;;;;;5009532;28;20025;-74
2023/12/07 00:27:49;;;;;;;63.78;48.40;;;;;;;;;;5024803;28;20036;-73
2023/12/07 00:30:15;;;;;;;63.22;50.22;;;;;;;;;;5024875;28;20025;-74
2023/12/07 00:32:43;;;;;;;60.50;50.50;;;;;;;;;;5025092;28;20017;-74
2023/12/07 00:35:09;;;;;;;61.03;50.15;;;;;;;;;;5010348;28;20365;-75
2023/12/07 00:37:34;;;;;;;66.07;54.50;;;;;;;;;;5015264;28;20033;-74
2023/12/07 00:39:59;;;;;;;76.60;59.13;;;;;;;;;;5024725;28;20033;-73
2023/12/07 00:42:25;;;;;;;88.50;64.93;;;;;;;;;;5024909;28;20037;-73
2023/12/07 00:44:50;;;;;;;113.50;80.88;;;;;;;;;;5024533;28;20029;-75
2023/12/07 00:47:15;;;;;;;109.93;83.68;;;;;;;;;;5024124;28;20039;-74
2023/12/07 00:49:41;;;;;;;65.82;51.83;;;;;;;;;;5024274;28;20116;-75
2023/12/07 00:52:06;;;;;;;69.82;54.47;;;;;;;;;;5024769;28;20305;-73
2023/12/07 00:54:32;;;;;;;58.35;47.65;;;;;;;;;;5025018;28;20631;-74
2023/12/07 00:56:57;;;;;;;72.30;57.13;;;;;;;;;;5012938;28;20032;-73
2023/12/07 00:59:23;;;;;;;99.55;75.90;;;;;;;;;;5024016;28;20140;-75
2023/12/07 01:01:48;;;;;;;93.00;73.20;;;;;;;;;;5015436;28;20029;-74
2023/12/07 01:04:14;;;;;;;93.88;75.32;;;;;;;;;;5009331;28;20028;-75
2023/12/07 01:06:39;;;;;;;98.47;79.13;;;;;;;;;;5021236;28;20111;-74
2023/12/07 01:09:04;;;;;;;106.47;86.38;;;;;;;;;;5024238;28;20465;-75
2023/12/07 01:11:30;;;;;;;130.95;99.30;;;;;;;;;;5024564;28;20326;-75
2023/12/07 01:13:55;;;;;;;122.25;98.88;;;;;;;;;;5024394;28;20021;-75
2023/12/07 01:16:20;;;;;;;101.03;79.82;;;;;;;;;;5019311;28;20067;-75
2023/12/07 01:18:46;;;;;;;75.50;58.80;;;;;;;;;;5008498;28;20056;-76
2023/12/07 01:21:12;;;;;;;77.88;58.75;;;;;;;;;;5010843;28;20037;-74
2023/12/07 01:23:37;;;;;;;107.30;86.93;;;;;;;;;;5009515;28;20049;-72
2023/12/07 01:26:03;;;;;;;98.97;65.78;;;;;;;;;;5010400;28;20029;-74
2023/12/07 01:28:28;;;;;;;82.05;62.55;;;;;;;;;;5020542;28;20064;-73
2023/12/07 01:30:53;;;;;;;66.10;55.97;;;;;;;;;;5023029;28;20097;-73
2023/12/07 01:33:19;;;;;;;55.78;48.55;;;;;;;;;;5023069;28;20025;-73
2023/12/07 01:35:44;;;;;;;50.35;40.08;;;;;;;;;;5022718;28;20120;-76
2023/12/07 01:38:10;;;;;;;52.00;44.95;;;;;;;;;;5021568;28;20029;-75
2023/12/07 01:40:35;;;;;;;59.03;48.92;;;;;;;;;;5022439;28;20040;-75
2023/12/07 01:43:00;;;;;;;55.40;44.58;;;;;;;;;;5023147;28;20025;-76
2023/12/07 01:45:26;;;;;;;56.13;47.45;;;;;;;;;;5023382;28;20071;-73
2023/12/07 01:47:52;;;;;;;60.03;51.47;;;;;;;;;;5011920;28;20033;-74
2023/12/07 01:50:23;;;;;;;53.13;46.25;;;;;;;;;;5011067;28;20120;-74
2023/12/07 01:52:49;;;;;;;58.80;48.42;;;;;;;;;;5011973;28;20029;-73
2023/12/07 01:55:15;;;;;;;57.50;46.38;;;;;;;;;;5021531;28;20026;-74
2023/12/07 01:57:41;;;;;;;64.72;51.92;;;;;;;;;;5022772;28;20025;-74
2023/12/07 02:00:07;;;;;;;54.92;44.72;;;;;;;;;;5017420;28;20460;-73
2023/12/07 02:02:33;;;;;;;57.97;49.85;;;;;;;;;;5003903;28;20037;-75
2023/12/07 02:04:58;;;;;;;73.43;55.97;;;;;;;;;;5022295;28;20108;-76
2023/12/07 02:07:23;;;;;;;77.85;61.08;;;;;;;;;;5021372;28;20471;-75
2023/12/07 02:09:49;;;;;;;75.80;59.90;;;;;;;;;;5023019;28;20028;-76
2023/12/07 02:12:14;;;;;;;68.75;52.42;;;;;;;;;;5012940;28;20431;-75
2023/12/07 02:14:40;;;;;;;66.97;52.65;;;;;;;;;;5017710;28;20034;-75
2023/12/07 02:17:25;;;;;;;47.47;38.92;;;;;;;;;;5022605;28;20025;-76
2023/12/07 02:19:54;;;;;;;53.65;43.30;;;;;;;;;;5004670;28;20046;-75
2023/12/07 02:22:31;;;;;;;42.65;37.13;;;;;;;;;;5019515;28;20132;-73
2023/12/07 02:25:07;;;;;;;36.40;29.88;;;;;;;;;;5021824;28;20037;-75
2023/12/07 02:27:37;;;;;;;35.50;29.77;;;;;;;;;;5010531;28;20033;-75
2023/12/07 02:30:02;;;;;;;31.92;27.55;;;;;;;;;;5022142;28;20029;-75
2023/12/07 02:32:28;;;;;;;41.15;33.13;;;;;;;;;;5021928;28;20084;-74
2023/12/07 02:34:54;;;;;;;45.33;38.22;;;;;;;;;;5021026;28;20348;-76
2023/12/07 02:37:21;;;;;;;40.60;33.72;;;;;;;;;;5022135;28;20108;-73
2023/12/07 02:39:46;;;;;;;52.85;41.45;;;;;;;;;;5002620;28;20040;-74
2023/12/07 02:42:12;;;;;;;54.17;46.17;;;;;;;;;;5003061;28;20039;-74
2023/12/07 02:44:38;;;;;;;62.10;52.17;;;;;;;;;;5020186;28;20337;-75
2023/12/07 02:47:03;;;;;;;51.20;41.95;;;;;;;;;;5020990;28;20946;-74
2023/12/07 02:49:29;;;;;;;44.10;36.42;;;;;;;;;;5007109;28;20453;-74
2023/12/07 02:51:54;;;;;;;50.28;41.47;;;;;;;;;;5021246;28;20032;-74
2023/12/07 02:54:19;;;;;;;52.83;44.00;;;;;;;;;;5017845;28;20028;-74
2023/12/07 02:56:47;;;;;;;56.75;45.35;;;;;;;;;;5007507;28;20025;-76
2023/12/07 02:59:13;;;;;;;52.67;42.17;;;;;;;;;;5020618;28;20033;-76
2023/12/07 03:01:38;;;;;;;58.67;47.83;;;;;;;;;;5022701;28;21292;-76
2023/12/07 03:04:04;;;;;;;43.55;36.60;;;;;;;;;;5021202;28;20160;-75
2023/12/07 03:06:29;;;;;;;44.20;37.63;;;;;;;;;;5022105;28;20135;-76
2023/12/07 03:08:54;;;;;;;38.90;33.80;;;;;;;;;;5021967;28;20029;-77
2023/12/07 03:11:20;;;;;;;38.85;33.75;;;;;;;;;;5020156;28;20018;-76
2023/12/07 03:13:45;;;;;;;37.58;32.47;;;;;;;;;;5012057;28;20018;-74
2023/12/07 03:16:10;;;;;;;43.10;37.10;;;;;;;;;;5007077;28;20025;-75
2023/12/07 03:18:36;;;;;;;39.65;32.55;;;;;;;;;;5021655;28;20041;-75
2023/12/07 03:21:02;;;;;;;31.77;25.85;;;;;;;;;;5021114;28;20028;-74
2023/12/07 03:23:28;;;;;;;28.95;26.08;;;;;;;;;;5021198;28;20034;-74
2023/12/07 03:25:53;;;;;;;28.60;24.08;;;;;;;;;;5021569;28;20030;-74
2023/12/07 03:28:18;;;;;;;27.77;24.80;;;;;;;;;;5021374;28;20151;-73
2023/12/07 03:30:44;;;;;;;32.20;28.65;;;;;;;;;;5019946;28;20195;-74
2023/12/07 03:33:09;;;;;;;30.27;27.05;;;;;;;;;;5021658;28;20057;-74
2023/12/07 03:35:34;;;;;;;32.20;28.75;;;;;;;;;;5020515;28;20029;-76
2023/12/07 03:38:00;;;;;;;31.40;27.95;;;;;;;;;;5020698;28;20032;-75
2023/12/07 03:40:26;;;;;;;34.30;30.55;;;;;;;;;;5021706;28;20033;-75
2023/12/07 03:42:51;;;;;;;36.53;30.77;;;;;;;;;;5021619;28;20368;-75
2023/12/07 03:45:16;;;;;;;39.05;32.80;;;;;;;;;;5022745;28;20036;-74
2023/12/07 03:47:42;;;;;;;32.83;26.08;;;;;;;;;;5021652;28;20472;-75
2023/12/07 03:50:07;;;;;;;30.20;27.00;;;;;;;;;;5021221;28;20559;-78
2023/12/07 03:52:33;;;;;;;27.95;24.90;;;;;;;;;;5021647;28;20052;-76
2023/12/07 03:54:58;;;;;;;32.92;29.35;;;;;;;;;;5021322;28;20013;-76
2023/12/07 03:57:23;;;;;;;28.98;25.88;;;;;;;;;;5020829;28;20025;-75
2023/12/07 03:59:49;;;;;;;31.35;27.92;;;;;;;;;;5020794;28;20044;-74
2023/12/07 04:02:14;;;;;;;43.47;37.10;;;;;;;;;;5018969;28;20029;-73
2023/12/07 04:04:39;;;;;;;42.67;36.85;;;;;;;;;;5020959;28;20017;-74
2023/12/07 04:07:05;;;;;;;43.33;36.60;;;;;;;;;;5021255;28;20049;-73
2023/12/07 04:09:30;;;;;;;43.47;35.92;;;;;;;;;;5019278;28;20099;-74
2023/12/07 04:11:56;;;;;;;53.33;41.78;;;;;;;;;;5006160;28;20055;-74
2023/12/07 04:14:21;;;;;;;52.85;44.17;;;;;;;;;;5015146;28;20160;-75
2023/12/07 04:16:47;;;;;;;51.85;43.55;;;;;;;;;;5013513;28;20036;-75
2023/12/07 04:19:12;;;;;;;52.45;43.22;;;;;;;;;;5021246;28;20464;-75
2023/12/07 04:21:38;;;;;;;50.83;42.58;;;;;;;;;;5021318;28;20037;-74
2023/12/07 04:24:03;;;;;;;46.47;39.67;;;;;;;;;;5020312;28;20034;-75
2023/12/07 04:26:29;;;;;;;45.63;40.03;;;;;;;;;;5010602;28;20033;-73
2023/12/07 04:28:54;;;;;;;46.30;38.33;;;;;;;;;;5018906;28;20030;-74
2023/12/07 04:31:21;;;;;;;49.50;42.60;;;;;;;;;;5020149;28;20037;-73
2023/12/07 04:33:46;;;;;;;55.42;44.25;;;;;;;;;;5020990;28;20041;-76
2023/12/07 04:36:12;;;;;;;90.70;74.88;;;;;;;;;;5009400;28;20026;-73
2023/12/07 04:38:37;;;;;;;75.55;60.15;;;;;;;;;;5019672;28;20025;-75
2023/12/07 04:41:03;;;;;;;100.82;78.30;;;;;;;;;;4998497;28;20364;-73
2023/12/07 04:43:28;;;;;;;71.65;56.17;;;;;;;;;;5010559;28;20029;-73
2023/12/07 04:45:53;;;;;;;53.50;44.47;;;;;;;;;;4996778;28;20040;-74
2023/12/07 04:48:19;;;;;;;52.13;44.13;;;;;;;;;;5008401;28;20204;-76
2023/12/07 04:50:44;;;;;;;64.47;53.85;;;;;;;;;;5020688;28;20044;-76
2023/12/07 04:53:09;;;;;;;45.70;39.22;;;;;;;;;;5019041;28;20013;-74
2023/12/07 04:55:35;;;;;;;49.33;44.08;;;;;;;;;;5020453;28;20038;-74
2023/12/07 04:58:01;;;;;;;41.13;36.72;;;;;;;;;;5009351;28;20025;-73
2023/12/07 05:00:27;;;;;;;36.63;32.63;;;;;;;;;;5021008;28;20033;-74
2023/12/07 05:02:52;;;;;;;31.75;28.45;;;;;;;;;;5009626;28;20079;-74
2023/12/07 05:05:18;;;;;;;31.52;28.30;;;;;;;;;;5020955;28;20025;-74
2023/12/07 05:07:43;;;;;;;37.65;33.65;;;;;;;;;;5020640;28;20054;-73
2023/12/07 05:10:09;;;;;;;65.43;58.17;;;;;;;;;;5021538;28;21186;-75
2023/12/07 05:12:35;;;;;;;71.43;57.28;;;;;;;;;;5023822;28;20029;-73
2023/12/07 05:15:00;;;;;;;108.72;83.80;;;;;;;;;;5023038;28;20130;-73
2023/12/07 05:17:26;;;;;;;86.53;70.97;;;;;;;;;;5013661;28;20123;-72
2023/12/07 05:19:51;;;;;;;80.18;70.65;;;;;;;;;;5024218;28;20039;-72
2023/12/07 05:22:17;;;;;;;61.60;54.63;;;;;;;;;;5013180;28;20048;-72
2023/12/07 05:24:42;;;;;;;47.67;41.72;;;;;;;;;;5020122;28;20022;-72
2023/12/07 05:27:08;;;;;;;35.80;31.70;;;;;;;;;;5024337;28;20029;-71
2023/12/07 05:29:33;;;;;;;38.45;34.55;;;;;;;;;;5023954;28;20103;-72
2023/12/07 05:31:58;;;;;;;38.97;34.97;;;;;;;;;;5023784;28;20036;-72
2023/12/07 05:34:24;;;;;;;45.58;40.85;;;;;;;;;;5023420;28;20037;-71
2023/12/07 05:36:49;;;;;;;48.00;42.92;;;;;;;;;;5023611;28;20021;-72
2023/12/07 05:39:14;;;;;;;66.90;59.67;;;;;;;;;;5023461;28;20034;-72
2023/12/07 05:41:40;;;;;;;73.65;65.80;;;;;;;;;;5023420;28;20367;-73
2023/12/07 05:44:05;;;;;;;69.60;62.42;;;;;;;;;;5017942;28;20021;-73
2023/12/07 05:46:32;;;;;;;61.78;55.72;;;;;;;;;;5016252;28;20620;-73
2023/12/07 05:48:57;;;;;;;50.30;45.38;;;;;;;;;;5023819;28;20762;-74
2023/12/07 05:51:23;;;;;;;46.00;41.33;;;;;;;;;;5023609;28;20030;-74
2023/12/07 05:53:49;;;;;;;39.55;35.55;;;;;;;;;;5023628;28;20063;-72
2023/12/07 05:56:18;;;;;;;33.50;30.13;;;;;;;;;;5023688;28;20037;-72
2023/12/07 05:58:43;;;;;;;31.63;28.58;;;;;;;;;;5023524;28;20228;-73
2023/12/07 06:01:08;;;;;;;30.55;27.55;;;;;;;;;;5022007;28;20034;-73
2023/12/07 06:03:35;;;;;;;41.35;36.85;;;;;;;;;;5022074;28;20025;-73
2023/12/07 06:06:00;;;;;;;47.10;42.03;;;;;;;;;;5022624;28;20041;-73
2023/12/07 06:08:25;;;;;;;57.80;47.47;;;;;;;;;;5022671;28;20417;-73
2023/12/07 06:10:51;;;;;;;54.58;46.35;;;;;;;;;;5019028;28;20364;-74
2023/12/07 06:13:16;;;;;;;50.03;44.08;;;;;;;;;;5009527;28;20036;-75
2023/12/07 06:15:41;;;;;;;68.05;60.03;;;;;;;;;;5010267;28;20032;-74
2023/12/07 06:18:07;;;;;;;64.20;57.20;;;;;;;;;;5022878;28;20064;-73
2023/12/07 06:20:34;;;;;;;87.95;78.22;;;;;;;;;;5024022;28;20140;-72
2023/12/07 06:23:00;;;;;;;122.32;107.22;;;;;;;;;;5022700;28;20052;-73
2023/12/07 06:25:25;;;;;;;143.00;117.82;;;;;;;;;;5022495;28;20163;-75
2023/12/07 06:27:50;;;;;;;147.43;122.07;;;;;;;;;;5023258;28;20082;-72
2023/12/07 06:30:16;;;;;;;111.57;91.57;;;;;;;;;;5008524;28;20032;-72
2023/12/07 06:32:41;;;;;;;148.20;121.97;;;;;;;;;;5021520;28;20040;-74
2023/12/07 06:35:07;;;;;;;157.43;130.73;;;;;;;;;;5023210;28;20094;-73
2023/12/07 06:37:32;;;;;;;152.57;122.18;;;;;;;;;;5023192;28;20468;-73
2023/12/07 06:39:59;;;;;;;176.95;142.27;;;;;;;;;;5022901;28;20045;-73
2023/12/07 06:42:25;;;;;;;427.23;332.33;;;;;;;;;;5022930;28;20116;-73
2023/12/07 06:44:50;;;;;;;292.20;238.52;;;;;;;;;;5022690;28;20167;-74
2023/12/07 06:47:16;;;;;;;363.23;278.38;;;;;;;;;;5022363;28;20104;-73
2023/12/07 06:49:41;;;;;;;410.90;300.33;;;;;;;;;;5023152;28;20033;-77
2023/12/07 06:52:06;;;;;;;659.40;515.60;;;;;;;;;;5022962;28;20021;-75
2023/12/07 06:54:32;;;;;;;391.45;276.98;;;;;;;;;;5021713;28;20414;-74
2023/12/07 06:56:57;;;;;;;173.50;136.30;;;;;;;;;;5021530;28;20488;-77
2023/12/07 06:59:22;;;;;;;164.80;138.48;;;;;;;;;;5011224;28;20455;-74
2023/12/07 07:01:48;;;;;;;179.48;140.43;;;;;;;;;;5021971;28;20439;-74
2023/12/07 07:04:14;;;;;;;209.30;162.00;;;;;;;;;;5021802;28;20021;-72
2023/12/07 07:06:40;;;;;;;217.02;170.63;;;;;;;;;;5003721;28;20053;-74
2023/12/07 07:09:05;;;;;;;213.02;180.20;;;;;;;;;;5021851;28;20021;-74
2023/12/07 07:11:30;;;;;;;256.80;209.27;;;;;;;;;;5021574;28;20095;-72
2023/12/07 07:13:56;;;;;;;288.83;229.63;;;;;;;;;;5020652;28;20063;-72
2023/12/07 07:16:21;;;;;;;236.98;196.05;;;;;;;;;;5022249;28;20047;-71
2023/12/07 07:18:47;;;;;;;234.90;188.48;;;;;;;;;;5021345;28;20033;-71
2023/12/07 07:21:12;;;;;;;195.90;157.23;;;;;;;;;;5017207;28;20036;-73
2023/12/07 07:23:37;;;;;;;211.15;169.07;;;;;;;;;;5014208;28;20459;-72
2023/12/07 07:26:03;;;;;;;213.55;187.13;;;;;;;;;;5021632;28;20437;-73
2023/12/07 07:28:28;;;;;;;193.38;164.95;;;;;;;;;;5020709;28;20021;-72
2023/12/07 07:30:53;;;;;;;163.23;132.68;;;;;;;;;;5020791;28;20090;-73
2023/12/07 07:33:19;;;;;;;185.00;141.48;;;;;;;;;;5020123;28;20079;-73
2023/12/07 07:35:44;;;;;;;217.85;171.48;;;;;;;;;;5019887;28;20034;-73
2023/12/07 07:38:10;;;;;;;216.23;166.32;;;;;;;;;;5021117;28;20467;-74
2023/12/07 07:40:36;;;;;;;248.10;198.93;;;;;;;;;;5021752;28;20052;-73
2023/12/07 07:43:01;;;;;;;278.15;227.45;;;;;;;;;;5020350;28;20798;-73
2023/12/07 07:45:26;;;;;;;322.00;252.05;;;;;;;;;;5021915;28;20061;-74
2023/12/07 07:47:52;;;;;;;266.33;217.52;;;;;;;;;;5011303;28;20021;-72
2023/12/07 07:50:18;;;;;;;290.75;239.98;;;;;;;;;;5017797;28;20033;-73
2023/12/07 07:52:43;;;;;;;302.75;245.75;;;;;;;;;;5019566;28;20109;-75
2023/12/07 07:55:10;;;;;;;398.23;310.67;;;;;;;;;;5012759;28;20510;-74
2023/12/07 07:57:35;;;;;;;364.63;291.83;;;;;;;;;;5007536;28;20025;-73
2023/12/07 08:00:00;;;;;;;279.33;236.10;;;;;;;;;;5020851;28;20094;-73
2023/12/07 08:02:27;;;;;;;271.23;238.68;;;;;;;;;;5010297;28;20021;-72
2023/12/07 08:04:52;;;;;;;302.48;258.10;;;;;;;;;;5007976;28;20029;-75
2023/12/07 08:07:17;;;;;;;289.73;244.23;;;;;;;;;;5008087;28;20499;-74
2023/12/07 08:09:43;;;;;;;370.67;302.90;;;;;;;;;;5009077;28;20034;-74
2023/12/07 08:12:08;;;;;;;267.50;228.65;;;;;;;;;;5006498;28;20283;-75
2023/12/07 08:14:37;;;;;;;280.13;221.35;;;;;;;;;;4992790;28;20028;-74
2023/12/07 08:17:05;;;;;;;320.55;267.27;;;;;;;;;;5007009;28;20025;-73
2023/12/07 08:19:31;;;;;;;319.85;256.65;;;;;;;;;;5013062;28;20345;-73
2023/12/07 08:21:56;;;;;;;315.77;249.52;;;;;;;;;;5017747;28;20033;-74
2023/12/07 08:24:21;;;;;;;321.15;263.60;;;;;;;;;;5009309;28;20037;-72
2023/12/07 08:26:47;;;;;;;310.75;253.02;;;;;;;;;;5020760;28;20033;-72
2023/12/07 08:29:13;;;;;;;277.67;231.13;;;;;;;;;;5021574;28;20025;-74
2023/12/07 08:31:39;;;;;;;270.15;224.77;;;;;;;;;;5016970;28;20433;-75
2023/12/07 08:34:05;;;;;;;358.05;288.67;;;;;;;;;;5003420;28;20045;-73
2023/12/07 08:36:30;;;;;;;396.42;302.27;;;;;;;;;;5021691;28;20034;-73
2023/12/07 08:38:55;;;;;;;328.50;267.60;;;;;;;;;;5020861;28;20034;-74
2023/12/07 08:41:21;;;;;;;290.73;238.57;;;;;;;;;;5020876;28;20091;-74
2023/12/07 08:43:46;;;;;;;284.33;224.90;;;;;;;;;;5021526;28;20461;-74
2023/12/07 08:46:11;;;;;;;317.73;260.08;;;;;;;;;;5012612;28;20025;-74
2023/12/07 08:48:37;;;;;;;410.52;328.98;;;;;;;;;;5010758;28;20075;-73
2023/12/07 08:51:03;;;;;;;459.48;356.10;;;;;;;;;;5010780;28;20113;-74
2023/12/07 08:53:28;;;;;;;279.83;230.80;;;;;;;;;;5010138;28;20041;-73
2023/12/07 08:55:54;;;;;;;236.65;190.13;;;;;;;;;;5009034;28;20026;-74
2023/12/07 08:58:19;;;;;;;186.00;143.63;;;;;;;;;;5005642;28;20076;-74
2023/12/07 09:00:44;;;;;;;313.08;235.30;;;;;;;;;;5012558;28;20025;-73
2023/12/07 09:03:10;;;;;;;252.48;194.88;;;;;;;;;;5023411;28;20069;-72
2023/12/07 09:05:35;;;;;;;216.15;183.95;;;;;;;;;;5024842;28;20358;-72
2023/12/07 09:08:01;;;;;;;191.60;163.52;;;;;;;;;;5020358;28;20491;-72
2023/12/07 09:10:26;;;;;;;237.77;192.27;;;;;;;;;;5015562;28;20344;-75
2023/12/07 09:12:51;;;;;;;342.02;264.70;;;;;;;;;;5024464;28;20051;-72
2023/12/07 09:15:17;;;;;;;337.20;269.90;;;;;;;;;;5012738;28;20029;-72
2023/12/07 09:17:42;;;;;;;342.27;269.88;;;;;;;;;;5013148;28;20365;-75
2023/12/07 09:20:14;;;;;;;389.20;306.42;;;;;;;;;;5018825;28;20025;-73
2023/12/07 09:22:43;;;;;;;436.15;332.02;;;;;;;;;;5023174;28;20480;-73
2023/12/07 09:25:09;;;;;;;421.13;321.63;;;;;;;;;;5010155;28;20037;-73
2023/12/07 09:27:37;;;;;;;385.88;307.48;;;;;;;;;;5008298;28;20112;-73
2023/12/07 09:30:07;;;;;;;374.13;293.13;;;;;;;;;;5013589;28;20079;-72
2023/12/07 09:32:38;;;;;;;302.95;247.27;;;;;;;;;;5007019;28;20069;-72
2023/12/07 09:35:07;;;;;;;339.83;279.67;;;;;;;;;;5021673;28;20022;-70
2023/12/07 09:37:32;;;;;;;383.55;315.13;;;;;;;;;;5022445;28;20033;-72
2023/12/07 09:39:58;;;;;;;435.40;356.55;;;;;;;;;;5022619;28;20042;-71
2023/12/07 09:42:23;;;;;;;451.83;375.67;;;;;;;;;;5023727;28;20029;-72
2023/12/07 09:44:48;;;;;;;448.90;371.27;;;;;;;;;;5021824;28;20021;-73
2023/12/07 09:47:14;;;;;;;338.65;281.73;;;;;;;;;;5022846;28;20037;-72
2023/12/07 09:49:40;;;;;;;354.88;304.40;;;;;;;;;;5011419;28;20033;-72
2023/12/07 09:52:07;;;;;;;430.38;352.45;;;;;;;;;;5022305;28;20029;-72
2023/12/07 09:54:35;;;;;;;429.60;367.60;;;;;;;;;;5021786;28;20029;-72
2023/12/07 09:57:00;;;;;;;409.98;326.08;;;;;;;;;;5022340;28;20127;-75
2023/12/07 09:59:25;;;;;;;315.52;262.40;;;;;;;;;;5012688;28;20405;-72
2023/12/07 10:01:51;;;;;;;267.77;225.98;;;;;;;;;;5009360;28;20029;-74
2023/12/07 10:04:20;;;;;;;328.60;262.15;;;;;;;;;;5009609;28;20025;-74
2023/12/07 10:06:46;;;;;;;335.15;274.65;;;;;;;;;;5008910;28;20053;-71
2023/12/07 10:09:11;;;;;;;296.52;251.93;;;;;;;;;;5008140;28;20120;-73
2023/12/07 10:11:37;;;;;;;285.15;232.55;;;;;;;;;;5008513;28;20364;-71
2023/12/07 10:14:02;;;;;;;193.40;156.18;;;;;;;;;;5010241;28;20056;-72
2023/12/07 10:16:28;;;;;;;257.10;199.65;;;;;;;;;;5008574;28;20298;-71
2023/12/07 10:18:53;;;;;;;221.45;173.02;;;;;;;;;;5008524;28;20099;-71
2023/12/07 10:21:31;;;;;;;239.23;187.93;;;;;;;;;;5021453;28;20752;-71
2023/12/07 10:23:57;;;;;;;221.40;194.15;;;;;;;;;;5011863;28;20109;-72
2023/12/07 10:26:22;;;;;;;272.38;228.13;;;;;;;;;;5011217;28;20445;-74
2023/12/07 10:28:54;;;;;;;252.40;214.13;;;;;;;;;;5022345;28;20121;-73
2023/12/07 10:31:19;;;;;;;246.35;207.70;;;;;;;;;;5020591;28;20732;-72
2023/12/07 10:33:48;;;;;;;265.52;219.27;;;;;;;;;;5021988;28;20104;-71
2023/12/07 10:36:13;;;;;;;339.63;282.75;;;;;;;;;;5008091;28;20029;-72
2023/12/07 10:38:41;;;;;;;404.10;338.58;;;;;;;;;;5007025;28;20064;-71
2023/12/07 10:41:09;;;;;;;396.77;338.42;;;;;;;;;;5008241;28;20025;-72
2023/12/07 10:43:36;;;;;;;409.80;349.65;;;;;;;;;;5008663;28;20014;-73
2023/12/07 10:46:02;;;;;;;429.33;356.30;;;;;;;;;;5021770;28;20039;-73
2023/12/07 10:48:31;;;;;;;428.60;346.83;;;;;;;;;;5021387;28;20418;-73
2023/12/07 10:50:59;;;;;;;453.47;378.30;;;;;;;;;;5021231;28;20423;-72
2023/12/07 10:53:30;;;;;;;420.58;346.42;;;;;;;;;;5021978;28;20705;-73
2023/12/07 10:55:56;;;;;;;436.77;373.35;;;;;;;;;;5021223;28;20021;-74
2023/12/07 10:58:22;;;;;;;392.15;329.00;;;;;;;;;;5021751;28;20022;-73
2023/12/07 11:00:48;;;;;;;405.45;344.48;;;;;;;;;;5021810;28;20029;-73
2023/12/07 11:03:15;;;;;;;355.30;301.88;;;;;;;;;;5021150;28;20027;-74
2023/12/07 11:05:41;;;;;;;300.98;254.60;;;;;;;;;;5020309;28;20025;-73
2023/12/07 11:08:07;;;;;;;313.98;264.80;;;;;;;;;;5020800;28;20140;-73
2023/12/07 11:10:39;;;;;;;273.88;236.90;;;;;;;;;;5021180;28;20036;-72
2023/12/07 11:13:22;;;;;;;216.38;187.82;;;;;;;;;;5021451;28;20539;-72
2023/12/07 11:15:48;;;;;;;178.98;153.90;;;;;;;;;;5021718;28;20048;-72
2023/12/07 11:18:13;;;;;;;183.57;158.32;;;;;;;;;;5021566;28;20049;-72
2023/12/07 11:20:39;;;;;;;140.00;122.70;;;;;;;;;;5020852;28;20044;-73
2023/12/07 11:23:05;;;;;;;127.68;113.47;;;;;;;;;;5022083;28;20036;-72
2023/12/07 11:25:30;;;;;;;139.50;121.78;;;;;;;;;;5022026;28;20038;-74
2023/12/07 11:28:03;;;;;;;137.48;122.32;;;;;;;;;;5021337;28;20740;-71
2023/12/07 11:30:30;;;;;;;127.70;113.70;;;;;;;;;;5021026;28;20357;-70
2023/12/07 11:32:55;;;;;;;133.05;118.60;;;;;;;;;;5021129;28;20017;-72
2023/12/07 11:35:21;;;;;;;170.23;150.20;;;;;;;;;;5020948;28;20032;-73
2023/12/07 11:38:08;;;;;;;158.73;141.15;;;;;;;;;;5020438;28;20136;-72
2023/12/07 11:40:51;;;;;;;146.70;130.73;;;;;;;;;;5020148;28;20334;-71
2023/12/07 11:43:17;;;;;;;152.85;137.07;;;;;;;;;;5020186;28;20022;-73
2023/12/07 11:45:49;;;;;;;138.30;121.50;;;;;;;;;;5021441;28;20032;-71
2023/12/07 11:48:15;;;;;;;129.00;115.13;;;;;;;;;;5019606;28;20041;-71
2023/12/07 11:51:00;;;;;;;124.20;110.68;;;;;;;;;;5020662;28;20033;-71
2023/12/07 11:53:25;;;;;;;96.93;86.57;;;;;;;;;;5020429;28;20033;-73
2023/12/07 11:55:51;;;;;;;84.85;75.82;;;;;;;;;;5020068;28;20055;-72
2023/12/07 11:58:17;;;;;;;178.05;148.27;;;;;;;;;;5020746;28;20040;-72
2023/12/07 12:00:43;;;;;;;138.50;112.72;;;;;;;;;;5019790;28;20040;-73
2023/12/07 12:03:08;;;;;;;95.85;85.80;;;;;;;;;;5020851;28;20029;-71
2023/12/07 12:05:34;;;;;;;90.50;80.60;;;;;;;;;;5021194;28;20380;-72
2023/12/07 12:07:59;;;;;;;90.85;80.97;;;;;;;;;;5020618;28;20034;-72
2023/12/07 12:10:25;;;;;;;110.60;97.25;;;;;;;;;;5020927;28;20030;-74
2023/12/07 12:12:51;;;;;;;100.57;89.82;;;;;;;;;;5020248;28;20087;-71
2023/12/07 12:15:16;;;;;;;93.70;82.00;;;;;;;;;;5021163;28;20076;-71
2023/12/07 12:17:42;;;;;;;90.75;77.05;;;;;;;;;;5020242;28;20097;-71
2023/12/07 12:20:10;;;;;;;194.82;131.82;;;;;;;;;;5020982;28;21110;-70
2023/12/07 12:22:36;;;;;;;156.23;120.97;;;;;;;;;;5019313;28;20033;-72
2023/12/07 12:25:01;;;;;;;162.23;130.27;;;;;;;;;;5021001;28;20044;-72
2023/12/07 12:27:27;;;;;;;156.93;127.82;;;;;;;;;;5021098;28;20037;-72
2023/12/07 12:29:52;;;;;;;281.45;196.98;;;;;;;;;;5020668;28;20063;-72
2023/12/07 12:32:18;;;;;;;139.70;109.95;;;;;;;;;;5020871;28;20163;-71
2023/12/07 12:34:43;;;;;;;127.72;113.80;;;;;;;;;;5020550;28;20947;-72
2023/12/07 12:37:09;;;;;;;146.82;130.82;;;;;;;;;;5020045;28;20032;-71
2023/12/07 12:39:34;;;;;;;145.02;128.85;;;;;;;;;;5021131;28;20038;-73
2023/12/07 12:42:00;;;;;;;128.18;109.60;;;;;;;;;;5019537;28;20040;-72
2023/12/07 12:44:26;;;;;;;188.57;137.80;;;;;;;;;;5020201;28;20094;-72
2023/12/07 12:46:52;;;;;;;200.30;143.45;;;;;;;;;;5019700;28;20033;-73
2023/12/07 12:49:17;;;;;;;187.30;154.82;;;;;;;;;;5020270;28;20028;-74
2023/12/07 12:51:44;;;;;;;163.25;133.18;;;;;;;;;;5019194;28;20037;-74
2023/12/07 12:54:09;;;;;;;203.85;181.98;;;;;;;;;;5019752;28;20022;-71
2023/12/07 12:56:36;;;;;;;186.45;158.73;;;;;;;;;;5019614;28;20082;-72
2023/12/07 12:59:02;;;;;;;148.57;120.60;;;;;;;;;;5019323;28;20474;-74
2023/12/07 13:01:27;;;;;;;75.72;67.63;;;;;;;;;;5019041;28;20032;-71
2023/12/07 13:03:52;;;;;;;90.80;81.32;;;;;;;;;;5019965;28;20941;-73
2023/12/07 13:06:18;;;;;;;114.93;102.70;;;;;;;;;;5020202;28;20060;-73
2023/12/07 13:08:44;;;;;;;78.18;69.68;;;;;;;;;;5019823;28;20037;-73
2023/12/07 13:11:09;;;;;;;95.95;85.68;;;;;;;;;;5018158;28;20017;-71
2023/12/07 13:13:35;;;;;;;99.13;88.60;;;;;;;;;;5019223;28;20107;-71
2023/12/07 13:16:00;;;;;;;60.63;54.03;;;;;;;;;;5019369;28;20072;-73
2023/12/07 13:18:26;;;;;;;58.28;52.28;;;;;;;;;;5019908;28;20188;-73
2023/12/07 13:20:51;;;;;;;74.15;66.35;;;;;;;;;;5020063;28;20025;-72
2023/12/07 13:23:16;;;;;;;88.25;77.60;;;;;;;;;;5019775;28;20423;-71
2023/12/07 13:25:42;;;;;;;75.22;67.72;;;;;;;;;;5019186;28;20084;-73
2023/12/07 13:28:08;;;;;;;98.40;62.28;;;;;;;;;;5018920;28;20448;-71
2023/12/07 13:30:35;;;;;;;293.80;154.55;;;;;;;;;;5020076;28;20468;-73
2023/12/07 13:33:01;;;;;;;190.35;130.02;;;;;;;;;;5018735;28;20112;-72
2023/12/07 13:35:26;;;;;;;84.47;55.63;;;;;;;;;;5022443;28;20112;-72
2023/12/07 13:37:51;;;;;;;58.10;50.67;;;;;;;;;;5022311;28;20521;-72
2023/12/07 13:40:17;;;;;;;61.28;48.55;;;;;;;;;;5021605;28;20173;-72
2023/12/07 13:42:42;;;;;;;57.67;47.40;;;;;;;;;;5021938;28;20061;-72
2023/12/07 13:45:08;;;;;;;114.32;85.03;;;;;;;;;;5021953;28;20026;-72
2023/12/07 13:47:36;;;;;;;66.78;55.20;;;;;;;;;;5022011;28;20025;-72
2023/12/07 13:50:03;;;;;;;63.15;54.85;;;;;;;;;;5022578;28;20048;-72
2023/12/07 13:52:28;;;;;;;53.50;47.85;;;;;;;;;;5022793;28;20041;-73
2023/12/07 13:54:54;;;;;;;55.85;49.83;;;;;;;;;;5021303;28;20036;-73
2023/12/07 13:57:20;;;;;;;71.75;63.90;;;;;;;;;;5022885;28;20318;-72
2023/12/07 13:59:45;;;;;;;70.57;61.78;;;;;;;;;;5022741;28;21228;-73